createdAt,value
2022-11-20T00:00:08.784Z,15.77
2022-11-20T00:01:12.494Z,14.82
2022-11-20T00:02:15.526Z,15.38
2022-11-20T00:03:18.114Z,15.50
2022-11-20T00:04:20.581Z,14.27
2022-11-20T00:05:22.079Z,14.20
2022-11-20T00:06:27.645Z,13.60
2022-11-20T00:07:29.164Z,15.48
2022-11-20T00:08:31.641Z,16.50
2022-11-20T00:09:33.142Z,15.77
2022-11-20T00:10:38.163Z,13.65
2022-11-20T00:11:39.787Z,15.75
2022-11-20T00:12:42.290Z,15.52
2022-11-20T00:13:44.041Z,14.73
2022-11-20T00:14:46.547Z,15.23
2022-11-20T00:15:48.076Z,15.00
2022-11-20T00:16:50.575Z,14.88
2022-11-20T00:17:52.057Z,15.15
2022-11-20T00:18:54.966Z,14.32
2022-11-20T00:19:56.578Z,16.02
2022-11-20T00:21:03.343Z,14.60
2022-11-20T00:22:07.232Z,15.30
2022-11-20T00:23:08.857Z,14.55
2022-11-20T00:24:11.695Z,14.50
2022-11-20T00:25:13.218Z,14.40
2022-11-20T00:26:18.238Z,15.25
2022-11-20T00:27:19.756Z,14.35
2022-11-20T00:28:22.259Z,15.15
2022-11-20T00:29:23.783Z,14.82
2022-11-20T00:30:26.268Z,14.93
2022-11-20T00:31:28.895Z,15.25
2022-11-20T00:32:31.790Z,15.32
2022-11-20T00:33:33.963Z,15.27
2022-11-20T00:34:36.451Z,15.63
2022-11-20T00:35:38.143Z,16.15
2022-11-20T00:36:41.139Z,15.98
2022-11-20T00:37:43.999Z,14.77
2022-11-20T00:38:47.042Z,15.63
2022-11-20T00:39:48.587Z,15.05
2022-11-20T00:40:57.130Z,14.75
2022-11-20T00:41:58.647Z,15.13
2022-11-20T00:43:01.176Z,15.30
2022-11-20T00:44:02.710Z,14.25
2022-11-20T00:45:06.034Z,14.60
2022-11-20T00:46:10.835Z,15.50
2022-11-20T00:47:13.357Z,14.60
2022-11-20T00:48:14.814Z,15.57
2022-11-20T00:49:17.303Z,16.42
2022-11-20T00:50:18.916Z,15.63
2022-11-20T00:51:23.742Z,15.77
2022-11-20T00:52:25.240Z,14.65
2022-11-20T00:53:29.324Z,15.27
2022-11-20T00:54:31.811Z,13.65
2022-11-20T00:55:33.316Z,16.70
2022-11-20T00:56:35.817Z,15.75
2022-11-20T00:57:37.336Z,14.90
2022-11-20T00:58:41.317Z,15.68
2022-11-20T00:59:42.861Z,16.45
2022-11-20T01:00:45.405Z,16.50
2022-11-20T01:01:46.985Z,15.85
2022-11-20T01:02:49.426Z,15.20
2022-11-20T01:03:52.862Z,15.90
2022-11-20T01:04:55.326Z,15.38
2022-11-20T01:06:01.224Z,14.40
2022-11-20T01:07:03.762Z,15.27
2022-11-20T01:08:05.717Z,15.15
2022-11-20T01:09:12.475Z,15.57
2022-11-20T01:10:14.058Z,14.90
2022-11-20T01:11:19.762Z,15.68
2022-11-20T01:12:21.268Z,14.90
2022-11-20T01:13:42.107Z,14.70
2022-11-20T01:14:43.782Z,14.75
2022-11-20T01:15:46.258Z,15.20
2022-11-20T01:16:50.099Z,15.70
2022-11-20T01:17:52.527Z,15.40
2022-11-20T01:18:57.429Z,15.00
2022-11-20T01:19:59.889Z,16.35
2022-11-20T01:21:03.530Z,15.55
2022-11-20T01:22:06.038Z,14.52
2022-11-20T01:23:07.575Z,15.75
2022-11-20T01:24:14.354Z,16.20
2022-11-20T01:25:16.111Z,16.50
2022-11-20T01:26:22.584Z,14.63
2022-11-20T01:27:25.065Z,14.93
2022-11-20T01:28:27.024Z,16.30
2022-11-20T01:29:29.586Z,14.52
2022-11-20T01:30:31.096Z,15.50
2022-11-20T01:31:35.235Z,16.13
2022-11-20T01:32:36.727Z,16.63
2022-11-20T01:33:39.195Z,15.25
2022-11-20T01:34:40.709Z,15.43
2022-11-20T01:35:43.189Z,15.55
2022-11-20T01:36:45.230Z,15.93
2022-11-20T01:37:47.707Z,15.90
2022-11-20T01:38:51.878Z,16.08
2022-11-20T01:39:55.685Z,15.88
2022-11-20T01:40:57.238Z,16.23
2022-11-20T01:42:17.530Z,15.70
2022-11-20T01:43:23.647Z,16.63
2022-11-20T01:44:58.648Z,14.80
2022-11-20T01:46:06.017Z,16.25
2022-11-20T01:47:10.726Z,15.45
2022-11-20T01:48:12.355Z,15.80
2022-11-20T01:49:21.377Z,15.50
2022-11-20T01:50:25.819Z,16.10
2022-11-20T01:51:33.345Z,15.13
2022-11-20T01:52:38.819Z,15.90
2022-11-20T01:53:41.397Z,15.35
2022-11-20T01:54:48.155Z,16.70
2022-11-20T01:55:55.475Z,15.63
2022-11-20T01:57:00.501Z,15.65
2022-11-20T01:58:04.583Z,16.17
2022-11-20T01:59:09.436Z,15.48
2022-11-20T02:00:15.072Z,15.75
2022-11-20T02:01:16.852Z,16.15
2022-11-20T02:02:19.429Z,15.77
2022-11-20T02:03:21.454Z,15.05
2022-11-20T02:04:25.010Z,15.10
2022-11-20T02:05:33.777Z,15.15
2022-11-20T02:06:41.828Z,15.52
2022-11-20T02:07:44.249Z,17.13
2022-11-20T02:08:46.780Z,14.57
2022-11-20T02:09:48.384Z,15.90
2022-11-20T02:10:52.203Z,15.95
2022-11-20T02:11:54.317Z,16.48
2022-11-20T02:13:14.861Z,15.05
2022-11-20T02:14:17.465Z,15.32
2022-11-20T02:15:19.049Z,15.00
2022-11-20T02:16:25.314Z,16.70
2022-11-20T02:17:27.138Z,14.25
2022-11-20T02:18:30.496Z,16.20
2022-11-20T02:19:33.760Z,15.68
2022-11-20T02:20:35.268Z,15.70
2022-11-20T02:21:43.183Z,14.75
2022-11-20T02:22:52.006Z,15.90
2022-11-20T02:24:04.984Z,16.52
2022-11-20T02:25:07.851Z,17.30
2022-11-20T02:26:15.061Z,14.70
2022-11-20T02:27:17.961Z,16.20
2022-11-20T02:28:21.381Z,16.42
2022-11-20T02:29:26.886Z,15.27
2022-11-20T02:30:29.378Z,17.80
2022-11-20T02:31:39.406Z,15.20
2022-11-20T02:32:42.491Z,17.83
2022-11-20T02:33:44.039Z,15.20
2022-11-20T02:34:46.506Z,17.95
2022-11-20T02:35:48.503Z,14.65
2022-11-20T02:36:52.557Z,14.90
2022-11-20T02:37:55.792Z,16.13
2022-11-20T02:38:58.259Z,14.57
2022-11-20T02:40:01.232Z,13.77
2022-11-20T02:41:04.045Z,15.45
2022-11-20T02:42:06.248Z,14.02
2022-11-20T02:43:09.373Z,14.85
2022-11-20T02:44:10.953Z,15.02
2022-11-20T02:45:14.166Z,14.82
2022-11-20T02:46:15.668Z,14.00
2022-11-20T02:47:18.212Z,14.38
2022-11-20T02:48:19.717Z,14.77
2022-11-20T02:49:22.308Z,14.80
2022-11-20T02:50:23.949Z,14.80
2022-11-20T02:51:26.632Z,15.85
2022-11-20T02:52:28.299Z,14.85
2022-11-20T02:53:30.810Z,15.30
2022-11-20T02:54:32.311Z,14.75
2022-11-20T02:55:37.088Z,14.93
2022-11-20T02:56:39.317Z,15.00
2022-11-20T02:57:41.887Z,15.82
2022-11-20T02:58:43.472Z,13.85
2022-11-20T02:59:45.980Z,15.30
2022-11-20T03:00:47.476Z,14.77
2022-11-20T03:01:50.080Z,14.45
2022-11-20T03:02:51.595Z,15.38
2022-11-20T03:03:55.413Z,14.48
2022-11-20T03:04:56.915Z,15.10
2022-11-20T03:06:00.764Z,14.52
2022-11-20T03:07:02.440Z,14.05
2022-11-20T03:08:05.158Z,15.05
2022-11-20T03:09:07.934Z,13.70
2022-11-20T03:10:09.995Z,13.90
2022-11-20T03:11:14.070Z,14.30
2022-11-20T03:12:15.724Z,13.45
2022-11-20T03:13:18.219Z,14.80
2022-11-20T03:14:22.349Z,14.50
2022-11-20T03:15:25.200Z,14.60
2022-11-20T03:16:26.701Z,14.70
2022-11-20T03:17:30.293Z,14.57
2022-11-20T03:18:31.828Z,13.95
2022-11-20T03:19:35.079Z,15.20
2022-11-20T03:20:36.676Z,14.65
2022-11-20T03:21:40.248Z,14.55
2022-11-20T03:22:41.741Z,14.93
2022-11-20T03:23:44.269Z,13.85
2022-11-20T03:24:45.749Z,15.27
2022-11-20T03:25:48.218Z,14.80
2022-11-20T03:26:51.098Z,14.65
2022-11-20T03:27:53.594Z,14.98
2022-11-20T03:28:57.041Z,15.20
2022-11-20T03:29:59.484Z,15.32
2022-11-20T03:31:06.875Z,15.10
2022-11-20T03:32:09.399Z,16.27
2022-11-20T03:33:11.144Z,16.17
2022-11-20T03:34:14.461Z,14.30
2022-11-20T03:35:15.947Z,17.35
2022-11-20T03:36:20.515Z,15.27
2022-11-20T03:37:22.038Z,16.38
2022-11-20T03:38:24.527Z,15.73
2022-11-20T03:39:26.096Z,17.15
2022-11-20T03:40:28.664Z,16.40
2022-11-20T03:41:31.717Z,17.15
2022-11-20T03:42:47.865Z,16.70
2022-11-20T03:43:50.357Z,15.25
2022-11-20T03:44:52.793Z,15.50
2022-11-20T03:45:54.325Z,16.67
2022-11-20T03:46:56.827Z,17.25
2022-11-20T03:47:58.366Z,14.85
2022-11-20T03:49:01.200Z,15.18
2022-11-20T03:50:02.726Z,17.20
2022-11-20T03:51:09.382Z,15.57
2022-11-20T03:52:10.924Z,16.50
2022-11-20T03:53:13.457Z,15.95
2022-11-20T03:54:15.031Z,15.50
2022-11-20T03:55:17.560Z,15.25
2022-11-20T03:56:20.799Z,16.98
2022-11-20T03:57:23.274Z,15.52
2022-11-20T03:58:26.108Z,16.58
2022-11-20T03:59:28.579Z,16.65
2022-11-20T04:00:30.095Z,15.80
2022-11-20T04:01:34.732Z,16.20
2022-11-20T04:02:36.281Z,14.75
2022-11-20T04:03:40.371Z,15.68
2022-11-20T04:04:41.864Z,16.27
2022-11-20T04:05:44.714Z,15.23
2022-11-20T04:06:46.896Z,16.30
2022-11-20T04:07:49.371Z,15.88
2022-11-20T04:08:53.744Z,16.67
2022-11-20T04:09:56.680Z,15.00
2022-11-20T04:11:08.403Z,15.10
2022-11-20T04:12:10.874Z,16.38
2022-11-20T04:13:12.375Z,15.90
2022-11-20T04:14:17.152Z,15.73
2022-11-20T04:15:18.930Z,16.83
2022-11-20T04:16:22.042Z,17.67
2022-11-20T04:17:23.557Z,15.75
2022-11-20T04:18:26.054Z,16.60
2022-11-20T04:19:27.567Z,16.05
2022-11-20T04:20:30.014Z,16.20
2022-11-20T04:21:31.949Z,16.35
2022-11-20T04:22:34.442Z,16.95
2022-11-20T04:23:36.423Z,16.38
2022-11-20T04:24:39.009Z,16.98
2022-11-20T04:25:40.569Z,16.20
2022-11-20T04:26:43.112Z,16.63
2022-11-20T04:27:44.615Z,16.13
2022-11-20T04:28:47.136Z,15.60
2022-11-20T04:29:49.947Z,16.15
2022-11-20T04:30:52.492Z,14.98
2022-11-20T04:31:54.007Z,16.58
2022-11-20T04:32:56.497Z,15.50
2022-11-20T04:34:00.984Z,16.25
2022-11-20T04:35:03.430Z,16.23
2022-11-20T04:36:08.140Z,16.38
2022-11-20T04:37:10.607Z,16.92
2022-11-20T04:38:12.092Z,17.25
2022-11-20T04:39:16.218Z,15.18
2022-11-20T04:40:17.759Z,15.75
2022-11-20T04:41:23.134Z,17.20
2022-11-20T04:42:35.178Z,16.70
2022-11-20T04:43:37.780Z,16.27
2022-11-20T04:44:39.475Z,16.50
2022-11-20T04:45:43.288Z,15.40
2022-11-20T04:46:44.887Z,15.80
2022-11-20T04:47:47.392Z,16.90
2022-11-20T04:48:49.042Z,15.80
2022-11-20T04:49:51.581Z,16.40
2022-11-20T04:50:56.711Z,16.85
2022-11-20T04:51:59.294Z,18.27
2022-11-20T04:53:00.828Z,15.85
2022-11-20T04:54:03.355Z,15.82
2022-11-20T04:55:05.583Z,16.15
2022-11-20T04:56:11.849Z,17.60
2022-11-20T04:57:15.260Z,17.63
2022-11-20T04:58:18.309Z,16.58
2022-11-20T04:59:20.211Z,15.90
2022-11-20T05:00:24.261Z,16.92
2022-11-20T05:01:28.409Z,16.80
2022-11-20T05:02:31.603Z,16.70
2022-11-20T05:03:37.391Z,17.60
2022-11-20T05:04:43.575Z,16.65
2022-11-20T05:05:45.139Z,16.80
2022-11-20T05:06:47.897Z,17.08
2022-11-20T05:07:49.458Z,17.33
2022-11-20T05:08:52.211Z,17.20
2022-11-20T05:09:53.968Z,16.70
2022-11-20T05:11:00.922Z,15.98
2022-11-20T05:12:02.416Z,17.50
2022-11-20T05:13:04.885Z,16.50
2022-11-20T05:14:06.559Z,15.68
2022-11-20T05:15:09.963Z,16.73
2022-11-20T05:16:13.993Z,17.45
2022-11-20T05:17:18.105Z,17.48
2022-11-20T05:18:19.606Z,16.90
2022-11-20T05:19:25.426Z,17.63
2022-11-20T05:20:26.895Z,17.20
2022-11-20T05:21:31.914Z,16.08
2022-11-20T05:22:33.407Z,17.55
2022-11-20T05:23:36.252Z,17.55
2022-11-20T05:24:37.746Z,17.33
2022-11-20T05:25:40.249Z,17.23
2022-11-20T05:26:41.833Z,16.80
2022-11-20T05:27:44.514Z,16.85
2022-11-20T05:28:46.472Z,17.17
2022-11-20T05:29:48.936Z,15.90
2022-11-20T05:30:50.719Z,16.52
2022-11-20T05:31:53.161Z,16.73
2022-11-20T05:32:55.987Z,18.00
2022-11-20T05:33:59.139Z,17.10
2022-11-20T05:35:00.696Z,17.33
2022-11-20T05:36:03.874Z,17.08
2022-11-20T05:37:05.384Z,17.55
2022-11-20T05:38:08.009Z,16.92
2022-11-20T05:39:12.758Z,16.70
2022-11-20T05:40:14.441Z,17.17
2022-11-20T05:41:19.436Z,15.95
2022-11-20T05:42:33.132Z,16.52
2022-11-20T05:43:36.575Z,17.30
2022-11-20T05:44:40.049Z,16.65
2022-11-20T05:45:43.250Z,17.70
2022-11-20T05:46:47.884Z,17.60
2022-11-20T05:47:50.474Z,16.83
2022-11-20T05:48:53.803Z,17.63
2022-11-20T05:49:56.625Z,16.65
2022-11-20T05:50:58.756Z,16.95
2022-11-20T05:52:01.465Z,17.20
2022-11-20T05:53:04.345Z,18.08
2022-11-20T05:54:06.863Z,17.83
2022-11-20T05:55:09.361Z,16.98
2022-11-20T05:56:14.534Z,16.83
2022-11-20T05:57:17.791Z,17.10
2022-11-20T05:58:20.226Z,17.85
2022-11-20T05:59:24.859Z,15.65
2022-11-20T06:00:27.309Z,17.20
2022-11-20T06:01:28.838Z,17.63
2022-11-20T06:02:31.353Z,17.27
2022-11-20T06:03:32.961Z,16.95
2022-11-20T06:04:36.774Z,16.15
2022-11-20T06:05:38.284Z,17.15
2022-11-20T06:06:40.975Z,17.88
2022-11-20T06:07:42.602Z,17.38
2022-11-20T06:08:45.853Z,17.48
2022-11-20T06:09:47.335Z,17.42
2022-11-20T06:10:49.832Z,16.73
2022-11-20T06:11:51.349Z,15.85
2022-11-20T06:12:53.847Z,16.38
2022-11-20T06:13:55.382Z,16.90
2022-11-20T06:14:57.846Z,17.90
2022-11-20T06:15:59.448Z,17.40
2022-11-20T06:17:02.008Z,17.48
2022-11-20T06:18:03.636Z,16.98
2022-11-20T06:19:06.295Z,16.45
2022-11-20T06:20:10.795Z,17.27
2022-11-20T06:21:15.821Z,17.50
2022-11-20T06:22:17.391Z,17.45
2022-11-20T06:23:19.854Z,15.73
2022-11-20T06:24:26.259Z,15.73
2022-11-20T06:25:27.799Z,17.52
2022-11-20T06:26:30.297Z,17.20
2022-11-20T06:27:31.816Z,14.57
2022-11-20T06:28:34.496Z,17.80
2022-11-20T06:29:35.971Z,16.17
2022-11-20T06:30:38.574Z,16.70
2022-11-20T06:31:43.238Z,16.25
2022-11-20T06:32:44.779Z,15.20
2022-11-20T06:33:47.368Z,16.25
2022-11-20T06:34:48.849Z,17.67
2022-11-20T06:35:58.444Z,16.85
2022-11-20T06:37:01.539Z,16.77
2022-11-20T06:38:04.039Z,16.02
2022-11-20T06:39:05.617Z,15.25
2022-11-20T06:40:09.733Z,16.27
2022-11-20T06:41:12.923Z,16.27
2022-11-20T06:42:15.439Z,15.48
2022-11-20T06:43:16.971Z,16.48
2022-11-20T06:44:19.468Z,16.58
2022-11-20T06:45:21.003Z,14.85
2022-11-20T06:46:23.806Z,15.43
2022-11-20T06:47:25.339Z,15.35
2022-11-20T06:48:29.707Z,15.65
2022-11-20T06:49:32.182Z,14.52
2022-11-20T06:50:33.750Z,15.55
2022-11-20T06:51:37.578Z,14.18
2022-11-20T06:52:43.462Z,15.98
2022-11-20T06:53:46.727Z,16.63
2022-11-20T06:54:48.265Z,15.57
2022-11-20T06:55:51.722Z,16.58
2022-11-20T06:56:53.274Z,16.67
2022-11-20T06:57:56.085Z,16.02
2022-11-20T06:58:57.716Z,17.25
2022-11-20T07:00:00.437Z,16.60
2022-11-20T07:01:12.679Z,16.38
2022-11-20T07:02:15.241Z,15.82
2022-11-20T07:03:16.735Z,15.63
2022-11-20T07:04:19.493Z,15.27
2022-11-20T07:05:21.087Z,16.25
2022-11-20T07:06:23.737Z,16.25
2022-11-20T07:07:26.645Z,15.63
2022-11-20T07:08:29.163Z,17.25
2022-11-20T07:09:30.657Z,16.20
2022-11-20T07:10:33.960Z,17.27
2022-11-20T07:11:35.726Z,16.75
2022-11-20T07:12:38.565Z,16.52
2022-11-20T07:13:40.157Z,16.73
2022-11-20T07:14:42.672Z,17.60
2022-11-20T07:15:44.429Z,17.05
2022-11-20T07:16:46.940Z,16.00
2022-11-20T07:17:49.380Z,17.65
2022-11-20T07:18:51.904Z,17.98
2022-11-20T07:19:53.546Z,16.38
2022-11-20T07:20:56.044Z,16.70
2022-11-20T07:21:57.584Z,16.20
2022-11-20T07:23:01.491Z,16.60
2022-11-20T07:24:03.070Z,17.40
2022-11-20T07:25:06.192Z,16.52
2022-11-20T07:26:12.830Z,17.20
2022-11-20T07:27:14.327Z,16.20
2022-11-20T07:28:16.811Z,16.30
2022-11-20T07:29:18.520Z,15.98
2022-11-20T07:30:21.656Z,15.85
2022-11-20T07:31:23.657Z,15.98
2022-11-20T07:32:27.164Z,16.52
2022-11-20T07:33:28.952Z,16.00
2022-11-20T07:34:31.420Z,16.63
2022-11-20T07:35:33.576Z,17.05
2022-11-20T07:36:36.166Z,16.50
2022-11-20T07:37:37.862Z,16.35
2022-11-20T07:38:41.663Z,16.88
2022-11-20T07:39:43.426Z,16.30
2022-11-20T07:40:45.922Z,17.83
2022-11-20T07:41:47.407Z,17.33
2022-11-20T07:42:50.813Z,18.38
2022-11-20T07:43:53.310Z,17.50
2022-11-20T07:44:54.844Z,17.83
2022-11-20T07:45:58.072Z,16.90
2022-11-20T07:46:59.628Z,16.65
2022-11-20T07:48:02.079Z,16.25
2022-11-20T07:49:04.587Z,15.57
2022-11-20T07:50:06.988Z,16.05
2022-11-20T07:51:09.562Z,16.98
2022-11-20T07:52:11.081Z,17.02
2022-11-20T07:53:14.729Z,16.52
2022-11-20T07:54:17.799Z,16.10
2022-11-20T07:55:20.345Z,16.50
2022-11-20T07:56:21.891Z,18.25
2022-11-20T07:57:28.272Z,16.45
2022-11-20T07:58:30.927Z,15.88
2022-11-20T07:59:33.407Z,17.52
2022-11-20T08:00:35.032Z,17.45
2022-11-20T08:01:37.527Z,15.90
2022-11-20T08:02:40.222Z,16.70
2022-11-20T08:03:42.706Z,16.65
2022-11-20T08:04:44.296Z,16.77
2022-11-20T08:05:46.795Z,17.05
2022-11-20T08:06:48.352Z,16.13
2022-11-20T08:07:51.139Z,16.65
2022-11-20T08:08:52.735Z,17.85
2022-11-20T08:09:56.566Z,15.05
2022-11-20T08:11:19.057Z,15.13
2022-11-20T08:12:40.251Z,17.10
2022-11-20T08:14:00.463Z,16.17
2022-11-20T08:15:02.082Z,16.58
2022-11-20T08:16:04.831Z,18.17
2022-11-20T08:17:07.334Z,16.65
2022-11-20T08:19:32.711Z,17.02
2022-11-20T08:20:35.495Z,16.42
2022-11-20T08:21:38.610Z,17.05
2022-11-20T08:22:40.240Z,17.52
2022-11-20T08:23:42.824Z,17.58
2022-11-20T08:24:45.311Z,15.60
2022-11-20T08:25:50.592Z,15.38
2022-11-20T08:26:53.088Z,17.15
2022-11-20T08:27:59.296Z,16.13
2022-11-20T08:29:02.760Z,16.77
2022-11-20T08:30:05.448Z,17.05
2022-11-20T08:31:07.947Z,16.02
2022-11-20T08:32:09.592Z,17.38
2022-11-20T08:33:12.079Z,15.32
2022-11-20T08:34:18.592Z,16.70
2022-11-20T08:35:21.631Z,16.90
2022-11-20T08:36:24.927Z,15.55
2022-11-20T08:37:26.468Z,15.90
2022-11-20T08:38:29.000Z,15.45
2022-11-20T08:39:31.508Z,16.40
2022-11-20T08:40:33.995Z,16.95
2022-11-20T08:41:37.880Z,16.90
2022-11-20T08:42:47.094Z,16.33
2022-11-20T08:43:49.914Z,16.67
2022-11-20T08:44:52.415Z,17.45
2022-11-20T08:45:53.982Z,16.92
2022-11-20T08:46:56.427Z,17.27
2022-11-20T08:48:01.243Z,16.50
2022-11-20T08:49:04.193Z,17.92
2022-11-20T08:50:06.600Z,16.63
2022-11-20T08:51:09.064Z,16.85
2022-11-20T08:52:11.562Z,15.55
2022-11-20T08:53:13.063Z,17.30
2022-11-20T08:54:16.094Z,17.52
2022-11-20T08:55:17.684Z,16.50
2022-11-20T08:56:20.218Z,17.95
2022-11-20T08:57:24.491Z,16.73
2022-11-20T08:58:26.427Z,17.55
2022-11-20T08:59:58.706Z,16.95
2022-11-20T09:00:50.964Z,16.85
2022-11-20T09:01:53.567Z,15.70
2022-11-20T09:02:55.249Z,16.45
2022-11-20T09:03:58.559Z,17.33
2022-11-20T09:05:00.093Z,15.48
2022-11-20T09:06:04.005Z,15.73
2022-11-20T09:07:06.537Z,17.90
2022-11-20T09:08:08.107Z,17.20
2022-11-20T09:09:10.614Z,16.55
2022-11-20T09:10:27.875Z,15.05
2022-11-20T09:11:30.436Z,17.27
2022-11-20T09:12:33.259Z,16.33
2022-11-20T09:13:37.204Z,16.15
2022-11-20T09:14:38.720Z,15.45
2022-11-20T09:15:41.221Z,15.80
2022-11-20T09:16:43.715Z,15.43
2022-11-20T09:17:51.611Z,16.30
2022-11-20T09:19:20.251Z,13.55
2022-11-20T09:20:17.091Z,14.90
2022-11-20T09:21:18.604Z,15.15
2022-11-20T09:22:21.159Z,14.20
2022-11-20T09:23:22.729Z,14.60
2022-11-20T09:24:25.225Z,15.98
2022-11-20T09:25:26.769Z,14.45
2022-11-20T09:26:29.263Z,14.70
2022-11-20T09:27:30.792Z,13.85
2022-11-20T09:28:35.114Z,14.15
2022-11-20T09:29:36.602Z,15.68
2022-11-20T09:30:39.395Z,13.45
2022-11-20T09:31:41.905Z,14.68
2022-11-20T09:32:43.766Z,15.25
2022-11-20T09:33:46.492Z,14.48
2022-11-20T09:34:48.965Z,15.93
2022-11-20T09:35:50.488Z,15.73
2022-11-20T09:36:52.985Z,16.00
2022-11-20T09:37:54.507Z,14.07
2022-11-20T09:38:57.281Z,15.85
2022-11-20T09:39:59.108Z,15.90
2022-11-20T09:41:06.005Z,15.43
2022-11-20T09:42:35.714Z,14.60
2022-11-20T09:43:51.649Z,15.57
2022-11-20T09:45:17.407Z,14.70
2022-11-20T09:46:29.020Z,15.52
2022-11-20T09:47:46.738Z,15.43
2022-11-20T09:49:11.949Z,14.95
2022-11-20T09:50:28.009Z,15.27
2022-11-20T09:51:43.701Z,15.48
2022-11-20T09:52:57.424Z,14.45
2022-11-20T09:54:12.563Z,15.57
2022-11-20T09:55:17.003Z,14.68
2022-11-20T09:56:22.860Z,14.88
2022-11-20T09:57:33.260Z,15.25
2022-11-20T09:58:40.515Z,15.38
2022-11-20T09:59:46.233Z,14.40
2022-11-20T10:00:50.410Z,14.65
2022-11-20T10:01:53.038Z,13.88
2022-11-20T10:03:00.482Z,14.48
2022-11-20T10:04:06.190Z,14.95
2022-11-20T10:05:19.107Z,14.68
2022-11-20T10:06:28.118Z,14.10
2022-11-20T10:07:35.838Z,15.07
2022-11-20T10:08:45.074Z,13.23
2022-11-20T10:09:52.282Z,14.88
2022-11-20T10:10:58.636Z,14.20
2022-11-20T10:12:16.221Z,14.75
2022-11-20T10:13:37.874Z,14.45
2022-11-20T10:14:57.247Z,15.15
2022-11-20T10:16:15.232Z,14.00
2022-11-20T10:17:29.463Z,13.95
2022-11-20T10:18:45.160Z,15.13
2022-11-20T10:20:03.784Z,14.60
2022-11-20T10:21:14.056Z,14.05
2022-11-20T10:22:32.015Z,14.18
2022-11-20T10:24:14.184Z,14.27
2022-11-20T10:25:18.827Z,13.52
2022-11-20T10:26:28.403Z,14.23
2022-11-20T10:27:46.273Z,14.60
2022-11-20T10:29:03.463Z,13.18
2022-11-20T10:30:12.990Z,14.25
2022-11-20T10:31:29.491Z,13.48
2022-11-20T10:32:38.353Z,13.55
2022-11-20T10:34:10.476Z,13.43
2022-11-20T10:35:18.010Z,14.52
2022-11-20T10:36:25.990Z,14.40
2022-11-20T10:37:30.248Z,14.65
2022-11-20T10:38:38.911Z,13.55
2022-11-20T10:39:48.124Z,14.27
2022-11-20T10:40:54.546Z,13.32
2022-11-20T10:41:57.127Z,15.55
2022-11-20T10:43:03.406Z,13.82
2022-11-20T10:44:11.659Z,13.80
2022-11-20T10:45:22.772Z,13.07
2022-11-20T10:46:27.014Z,14.20
2022-11-20T10:47:30.949Z,13.63
2022-11-20T10:48:34.329Z,14.25
2022-11-20T10:49:35.979Z,14.15
2022-11-20T10:50:48.587Z,14.82
2022-11-20T10:52:04.455Z,16.48
2022-11-20T10:53:15.536Z,14.15
2022-11-20T10:54:24.348Z,14.52
2022-11-20T10:55:34.854Z,15.85
2022-11-20T10:56:48.353Z,15.73
2022-11-20T10:57:59.671Z,16.15
2022-11-20T10:59:13.991Z,16.05
2022-11-20T11:00:18.788Z,13.65
2022-11-20T11:01:23.892Z,15.90
2022-11-20T11:02:33.434Z,16.55
2022-11-20T11:03:36.088Z,16.17
2022-11-20T11:04:43.723Z,15.07
2022-11-20T11:05:52.772Z,15.57
2022-11-20T11:06:59.511Z,14.43
2022-11-20T11:08:02.113Z,15.43
2022-11-20T11:09:12.076Z,14.02
2022-11-20T11:10:24.821Z,14.38
2022-11-20T11:11:29.750Z,14.50
2022-11-20T11:12:32.273Z,14.60
2022-11-20T11:13:33.901Z,14.60
2022-11-20T11:14:44.434Z,16.27
2022-11-20T11:15:48.353Z,15.60
2022-11-20T11:16:51.732Z,16.13
2022-11-20T11:17:54.253Z,14.25
2022-11-20T11:19:05.343Z,15.50
2022-11-20T11:20:17.966Z,14.57
2022-11-20T11:21:25.520Z,14.90
2022-11-20T11:22:29.723Z,14.55
2022-11-20T11:23:36.024Z,14.88
2022-11-20T11:24:42.766Z,14.90
2022-11-20T11:25:58.946Z,15.50
2022-11-20T11:27:05.313Z,16.33
2022-11-20T11:28:22.128Z,14.82
2022-11-20T11:29:25.284Z,14.65
2022-11-20T11:30:30.922Z,13.70
2022-11-20T11:31:36.394Z,14.50
2022-11-20T11:32:37.949Z,14.35
2022-11-20T11:33:40.471Z,16.15
2022-11-20T11:34:43.186Z,15.52
2022-11-20T11:35:51.421Z,15.65
2022-11-20T11:36:59.092Z,15.60
2022-11-20T11:38:08.028Z,15.57
2022-11-20T11:39:15.742Z,14.98
2022-11-20T11:40:24.785Z,15.10
2022-11-20T11:41:32.873Z,14.27
2022-11-20T11:42:34.782Z,15.60
2022-11-20T11:43:57.127Z,13.35
2022-11-20T11:45:08.086Z,14.80
2022-11-20T11:46:26.412Z,15.02
2022-11-20T11:47:34.163Z,14.52
2022-11-20T11:48:35.693Z,13.85
2022-11-20T11:49:38.205Z,14.25
2022-11-20T11:50:49.774Z,14.00
2022-11-20T11:52:02.633Z,15.40
2022-11-20T11:53:12.214Z,15.60
2022-11-20T11:54:18.774Z,14.93
2022-11-20T11:55:31.167Z,15.35
2022-11-20T11:56:34.083Z,14.95
2022-11-20T11:57:46.305Z,15.90
2022-11-20T11:58:50.698Z,14.50
2022-11-20T12:00:03.194Z,14.02
2022-11-20T12:01:21.667Z,13.45
2022-11-20T12:02:36.872Z,14.25
2022-11-20T12:03:42.236Z,15.50
2022-11-20T12:04:47.253Z,14.07
2022-11-20T12:05:55.886Z,13.93
2022-11-20T12:07:18.342Z,14.77
2022-11-20T12:08:29.156Z,14.02
2022-11-20T12:09:39.480Z,16.40
2022-11-20T12:10:48.222Z,13.75
2022-11-20T12:11:56.269Z,14.45
2022-11-20T12:13:03.647Z,14.05
2022-11-20T12:14:15.617Z,13.65
2022-11-20T12:15:27.257Z,14.85
2022-11-20T12:16:31.278Z,15.07
2022-11-20T12:17:34.197Z,14.95
2022-11-20T12:18:36.859Z,15.57
2022-11-20T12:19:38.541Z,14.32
2022-11-20T12:20:47.510Z,14.70
2022-11-20T12:22:03.331Z,15.15
2022-11-20T12:23:17.243Z,14.77
2022-11-20T12:24:37.270Z,16.20
2022-11-20T12:25:42.191Z,16.40
2022-11-20T12:26:58.735Z,15.45
2022-11-20T12:28:23.950Z,14.82
2022-11-20T12:29:39.374Z,15.02
2022-11-20T12:30:49.592Z,15.70
2022-11-20T12:32:42.025Z,15.45
2022-11-20T12:34:09.759Z,14.73
2022-11-20T12:35:27.534Z,14.40
2022-11-20T12:36:37.838Z,16.73
2022-11-20T12:37:49.507Z,15.57
2022-11-20T12:39:13.787Z,16.08
2022-11-20T12:40:29.768Z,15.57
2022-11-20T12:42:17.021Z,16.90
2022-11-20T12:43:40.301Z,16.73
2022-11-20T12:45:13.594Z,15.48
2022-11-20T12:46:26.361Z,15.73
2022-11-20T12:47:39.559Z,16.90
2022-11-20T12:48:54.856Z,13.60
2022-11-20T12:50:05.545Z,15.73
2022-11-20T12:51:23.357Z,14.65
2022-11-20T12:52:41.219Z,16.42
2022-11-20T12:53:53.009Z,16.20
2022-11-20T12:55:22.451Z,17.55
2022-11-20T12:56:35.263Z,15.85
2022-11-20T12:57:45.740Z,17.02
2022-11-20T12:59:01.368Z,15.95
2022-11-20T13:00:11.760Z,16.05
2022-11-20T13:01:40.443Z,17.67
2022-11-20T13:03:08.695Z,16.75
2022-11-20T13:04:25.171Z,15.68
2022-11-20T13:05:35.613Z,16.60
2022-11-20T13:06:38.426Z,15.77
2022-11-20T13:07:41.809Z,15.77
2022-11-20T13:08:49.305Z,15.48
2022-11-20T13:09:51.995Z,14.93
2022-11-20T13:11:03.744Z,17.00
2022-11-20T13:12:13.024Z,16.00
2022-11-20T13:13:20.977Z,14.82
2022-11-20T13:14:34.115Z,16.65
2022-11-20T13:15:47.572Z,16.70
2022-11-20T13:16:54.842Z,16.73
2022-11-20T13:17:59.844Z,16.95
2022-11-20T13:19:05.732Z,17.00
2022-11-20T13:20:17.416Z,17.75
2022-11-20T13:21:22.407Z,15.90
2022-11-20T13:22:27.562Z,16.27
2022-11-20T13:23:30.335Z,17.58
2022-11-20T13:24:34.394Z,18.48
2022-11-20T13:25:37.751Z,18.50
2022-11-20T13:26:40.242Z,18.52
2022-11-20T13:27:49.643Z,19.10
2022-11-20T13:29:04.345Z,17.10
2022-11-20T13:30:18.306Z,18.13
2022-11-20T13:31:31.605Z,17.27
2022-11-20T13:32:34.139Z,19.05
2022-11-20T13:33:39.686Z,18.77
2022-11-20T13:34:52.899Z,17.70
2022-11-20T13:36:00.375Z,18.77
2022-11-20T13:37:04.677Z,18.45
2022-11-20T13:38:09.993Z,18.75
2022-11-20T13:39:11.551Z,18.88
2022-11-20T13:40:25.020Z,17.55
2022-11-20T13:41:29.154Z,16.92
2022-11-20T13:42:31.697Z,17.10
2022-11-20T13:43:39.154Z,18.77
2022-11-20T13:44:44.825Z,19.02
2022-11-20T13:45:57.331Z,18.58
2022-11-20T13:46:59.814Z,19.08
2022-11-20T13:48:05.157Z,18.77
2022-11-20T13:49:12.536Z,18.17
2022-11-20T13:50:15.255Z,17.02
2022-11-20T13:51:34.018Z,17.88
2022-11-20T13:52:43.744Z,18.45
2022-11-20T13:54:14.084Z,17.58
2022-11-20T13:55:25.657Z,19.27
2022-11-20T13:56:40.495Z,19.73
2022-11-20T13:57:59.581Z,18.55
2022-11-20T13:59:14.755Z,17.67
2022-11-20T14:00:19.561Z,16.27
2022-11-20T14:01:25.037Z,18.77
2022-11-20T14:02:30.563Z,17.98
2022-11-20T14:04:04.605Z,19.52
2022-11-20T14:05:00.510Z,18.60